createdAt,value
2023-03-01T07:00:25.869Z,1021.77
2023-03-01T07:00:58.330Z,1021.75
2023-03-01T07:01:30.774Z,1021.76
2023-03-01T07:02:03.164Z,1021.76
2023-03-01T07:02:35.683Z,1021.76
2023-03-01T07:03:08.190Z,1021.77
2023-03-01T07:03:40.564Z,1021.77
2023-03-01T07:04:12.988Z,1021.77
2023-03-01T07:04:45.439Z,1021.80
2023-03-01T07:05:17.861Z,1021.78
2023-03-01T07:05:50.345Z,1021.77
2023-03-01T07:06:22.788Z,1021.78
2023-03-01T07:06:55.305Z,1021.74
2023-03-01T07:07:27.758Z,1021.74
2023-03-01T07:08:00.238Z,1021.73
2023-03-01T07:08:32.649Z,1021.72
2023-03-01T07:09:05.113Z,1021.71
2023-03-01T07:09:37.564Z,1021.72
2023-03-01T07:10:10.025Z,1021.74
2023-03-01T07:10:42.493Z,1021.73
2023-03-01T07:11:14.932Z,1021.74
2023-03-01T07:11:47.393Z,1021.72
2023-03-01T07:12:19.833Z,1021.72
2023-03-01T07:12:52.404Z,1021.72
2023-03-01T07:13:24.860Z,1021.73
2023-03-01T07:13:57.315Z,1021.72
2023-03-01T07:14:29.740Z,1021.70
2023-03-01T07:15:02.221Z,1021.68
2023-03-01T07:15:34.652Z,1021.68
2023-03-01T07:16:07.132Z,1021.71
2023-03-01T07:16:39.588Z,1021.70
2023-03-01T07:17:12.030Z,1021.70
2023-03-01T07:17:44.521Z,1021.71
2023-03-01T07:18:16.986Z,1021.70
2023-03-01T07:18:49.457Z,1021.72
2023-03-01T07:19:21.910Z,1021.72
2023-03-01T07:19:54.404Z,1021.72
2023-03-01T07:20:26.918Z,1021.73
2023-03-01T07:20:59.382Z,1021.70
2023-03-01T07:21:31.808Z,1021.72
2023-03-01T07:22:04.354Z,1021.70
2023-03-01T07:22:36.798Z,1021.71
2023-03-01T07:23:09.278Z,1021.70
2023-03-01T07:23:41.745Z,1021.70
2023-03-01T07:24:15.076Z,1021.71
2023-03-01T07:24:47.517Z,1021.72
2023-03-01T07:25:19.969Z,1021.72
2023-03-01T07:25:52.486Z,1021.72
2023-03-01T07:26:26.201Z,1021.73
2023-03-01T07:26:57.373Z,1021.75
2023-03-01T07:27:29.823Z,1021.77
2023-03-01T07:28:02.313Z,1021.77
2023-03-01T07:28:34.768Z,1021.77
2023-03-01T07:29:07.236Z,1021.78
2023-03-01T07:29:39.686Z,1021.79
2023-03-01T07:30:12.183Z,1021.79
2023-03-01T07:30:44.598Z,1021.79
2023-03-01T07:31:17.116Z,1021.75
2023-03-01T07:31:49.642Z,1021.77
2023-03-01T07:32:22.164Z,1021.77
2023-03-01T07:32:55.684Z,1021.78
2023-03-01T07:33:27.060Z,1021.77
2023-03-01T07:33:59.677Z,1021.75
2023-03-01T07:34:32.121Z,1021.76
2023-03-01T07:35:04.596Z,1021.78
2023-03-01T07:35:37.084Z,1021.81
2023-03-01T07:36:09.510Z,1021.82
2023-03-01T07:36:42.015Z,1021.83
2023-03-01T07:37:14.477Z,1021.85
2023-03-01T07:37:46.921Z,1021.87
2023-03-01T07:38:19.422Z,1021.90
2023-03-01T07:38:51.867Z,1021.91
2023-03-01T07:39:24.323Z,1021.95
2023-03-01T07:39:56.773Z,1021.92
2023-03-01T07:40:29.303Z,1021.93
2023-03-01T07:41:01.770Z,1021.94
2023-03-01T07:41:34.237Z,1021.95
2023-03-01T07:42:06.722Z,1021.95
2023-03-01T07:42:39.179Z,1021.98
2023-03-01T07:43:11.628Z,1022.01
2023-03-01T07:43:44.098Z,1022.02
2023-03-01T07:44:16.670Z,1022.02
2023-03-01T07:44:49.142Z,1021.98
2023-03-01T07:45:21.656Z,1021.99
2023-03-01T07:45:54.171Z,1022.02
2023-03-01T07:46:26.523Z,1022.01
2023-03-01T07:46:58.954Z,1022.04
2023-03-01T07:47:31.437Z,1022.03
2023-03-01T07:48:03.944Z,1022.02
2023-03-01T07:48:36.404Z,1022.06
2023-03-01T07:49:08.872Z,1022.09
2023-03-01T07:49:41.326Z,1022.05
2023-03-01T07:50:13.994Z,1022.05
2023-03-01T07:50:46.962Z,1022.06
2023-03-01T07:51:21.154Z,1022.08
2023-03-01T07:51:51.851Z,1022.04
2023-03-01T07:52:24.313Z,1022.06
2023-03-01T07:52:56.760Z,1022.07
2023-03-01T07:53:29.255Z,1022.10
2023-03-01T07:54:01.729Z,1022.08
2023-03-01T07:54:34.201Z,1022.08
2023-03-01T07:55:06.667Z,1022.11
2023-03-01T07:55:39.187Z,1022.11
2023-03-01T07:56:11.648Z,1022.12
2023-03-01T07:56:44.092Z,1022.14
2023-03-01T07:57:16.561Z,1022.18
2023-03-01T07:57:49.086Z,1022.19
2023-03-01T07:58:21.546Z,1022.19
2023-03-01T07:58:54.008Z,1022.20
2023-03-01T07:59:26.455Z,1022.21
2023-03-01T07:59:58.938Z,1022.23
2023-03-01T08:00:31.390Z,1022.24
2023-03-01T08:01:03.848Z,1022.20
2023-03-01T08:01:36.337Z,1022.22
2023-03-01T08:02:08.866Z,1022.23
2023-03-01T08:02:41.290Z,1022.22
2023-03-01T08:03:13.830Z,1022.21
2023-03-01T08:03:46.286Z,1022.22
2023-03-01T08:04:18.718Z,1022.22
2023-03-01T08:04:51.208Z,1022.21
2023-03-01T08:05:23.626Z,1022.23
2023-03-01T08:05:56.106Z,1022.25
2023-03-01T08:06:28.655Z,1022.22
2023-03-01T08:07:01.058Z,1022.21
2023-03-01T08:07:33.584Z,1022.23
2023-03-01T08:08:06.052Z,1022.23
2023-03-01T08:08:38.552Z,1022.22
2023-03-01T08:09:11.015Z,1022.20
2023-03-01T08:09:43.499Z,1022.21
2023-03-01T08:10:15.996Z,1022.23
2023-03-01T08:10:48.476Z,1022.21
2023-03-01T08:11:21.155Z,1022.23
2023-03-01T08:11:53.461Z,1022.25
2023-03-01T08:12:25.898Z,1022.27
2023-03-01T08:12:58.364Z,1022.23
2023-03-01T08:13:30.826Z,1022.23
2023-03-01T08:14:03.293Z,1022.24
2023-03-01T08:14:35.745Z,1022.24
2023-03-01T08:15:08.220Z,1022.26
2023-03-01T08:15:40.680Z,1022.27
2023-03-01T08:16:13.208Z,1022.21
2023-03-01T08:16:45.677Z,1022.23
2023-03-01T08:17:18.109Z,1022.27
2023-03-01T08:17:50.571Z,1022.27
2023-03-01T08:18:23.033Z,1022.24
2023-03-01T08:18:55.504Z,1022.23
2023-03-01T08:19:27.971Z,1022.23
2023-03-01T08:20:00.470Z,1022.24
2023-03-01T08:20:32.938Z,1022.24
2023-03-01T08:21:05.410Z,1022.24
2023-03-01T08:21:37.878Z,1022.24
2023-03-01T08:22:10.379Z,1022.23
2023-03-01T08:22:42.829Z,1022.26
2023-03-01T08:23:15.295Z,1022.26
2023-03-01T08:23:47.894Z,1022.27
2023-03-01T08:24:20.358Z,1022.28
2023-03-01T08:24:52.922Z,1022.30
2023-03-01T08:25:25.425Z,1022.27
2023-03-01T08:25:57.876Z,1022.24
2023-03-01T08:26:30.594Z,1022.24
2023-03-01T08:27:02.853Z,1022.24
2023-03-01T08:27:35.306Z,1022.25
2023-03-01T08:28:07.759Z,1022.25
2023-03-01T08:28:40.260Z,1022.26
2023-03-01T08:29:12.734Z,1022.25
2023-03-01T08:29:45.287Z,1022.28
2023-03-01T08:30:17.920Z,1022.25
2023-03-01T08:30:50.367Z,1022.23
2023-03-01T08:31:22.977Z,1022.25
2023-03-01T08:31:55.451Z,1022.25
2023-03-01T08:32:27.866Z,1022.23
2023-03-01T08:33:00.266Z,1022.24
2023-03-01T08:33:32.783Z,1022.23
2023-03-01T08:34:05.297Z,1022.24
2023-03-01T08:34:37.758Z,1022.24
2023-03-01T08:35:10.229Z,1022.26
2023-03-01T08:35:42.715Z,1022.25
2023-03-01T08:36:15.124Z,1022.25
2023-03-01T08:36:47.640Z,1022.24
2023-03-01T08:37:20.067Z,1022.23
2023-03-01T08:37:52.530Z,1022.22
2023-03-01T08:38:24.971Z,1022.23
2023-03-01T08:38:57.428Z,1022.22
2023-03-01T08:39:29.929Z,1022.23
2023-03-01T08:40:02.387Z,1022.22
2023-03-01T08:40:34.855Z,1022.17
2023-03-01T08:41:07.307Z,1022.17
2023-03-01T08:41:39.784Z,1022.17
2023-03-01T08:42:12.236Z,1022.18
2023-03-01T08:42:44.721Z,1022.18
2023-03-01T08:43:17.167Z,1022.21
2023-03-01T08:43:49.662Z,1022.19
2023-03-01T08:44:22.138Z,1022.19
2023-03-01T08:44:54.617Z,1022.18
2023-03-01T08:45:27.067Z,1022.17
2023-03-01T08:45:59.593Z,1022.15
2023-03-01T08:46:32.325Z,1022.14
2023-03-01T08:47:04.456Z,1022.14
2023-03-01T08:47:36.945Z,1022.14
2023-03-01T08:48:09.388Z,1022.10
2023-03-01T08:48:41.846Z,1022.10
2023-03-01T08:49:14.292Z,1022.08
2023-03-01T08:49:46.761Z,1022.08
2023-03-01T08:50:19.221Z,1022.08
2023-03-01T08:50:51.678Z,1022.07
2023-03-01T08:51:24.157Z,1022.07
2023-03-01T08:51:56.624Z,1022.08
2023-03-01T08:52:29.101Z,1022.11
2023-03-01T08:53:01.548Z,1022.11
2023-03-01T08:53:33.998Z,1022.10
2023-03-01T08:54:06.511Z,1022.09
2023-03-01T08:54:38.975Z,1022.08
2023-03-01T08:55:11.422Z,1022.05
2023-03-01T08:55:43.888Z,1022.02
2023-03-01T08:56:16.354Z,1022.03
2023-03-01T08:56:48.847Z,1022.03
2023-03-01T08:57:21.285Z,1022.05
2023-03-01T08:57:53.775Z,1022.08
2023-03-01T08:58:26.222Z,1022.07
2023-03-01T08:58:58.700Z,1022.10
2023-03-01T08:59:31.179Z,1022.10
2023-03-01T09:00:03.642Z,1022.07
2023-03-01T09:00:36.115Z,1022.08
2023-03-01T09:01:08.604Z,1022.07
2023-03-01T09:01:41.062Z,1022.09
2023-03-01T09:02:13.568Z,1022.07
2023-03-01T09:02:46.002Z,1022.08
2023-03-01T09:03:18.503Z,1022.04
2023-03-01T09:03:51.009Z,1022.05
2023-03-01T09:04:23.458Z,1022.05
2023-03-01T09:04:55.930Z,1022.07
2023-03-01T09:05:28.367Z,1022.11
2023-03-01T09:06:00.829Z,1022.11
2023-03-01T09:06:33.495Z,1022.12
2023-03-01T09:07:05.766Z,1022.14
2023-03-01T09:07:38.241Z,1022.13
2023-03-01T09:08:10.771Z,1022.11
2023-03-01T09:08:43.314Z,1022.13
2023-03-01T09:09:15.758Z,1022.14
2023-03-01T09:09:48.225Z,1022.15
2023-03-01T09:10:20.721Z,1022.13
2023-03-01T09:10:53.204Z,1022.17
2023-03-01T09:11:25.713Z,1022.20
2023-03-01T09:11:58.174Z,1022.16
2023-03-01T09:12:30.631Z,1022.19
2023-03-01T09:13:03.122Z,1022.20
2023-03-01T09:13:35.575Z,1022.19
2023-03-01T09:14:08.070Z,1022.20
2023-03-01T09:14:40.548Z,1022.17
2023-03-01T09:15:13.033Z,1022.14
2023-03-01T09:15:45.461Z,1022.13
2023-03-01T09:16:17.960Z,1022.13
2023-03-01T09:16:50.447Z,1022.12
2023-03-01T09:17:22.862Z,1022.10
2023-03-01T09:17:55.356Z,1022.11
2023-03-01T09:18:27.823Z,1022.10
2023-03-01T09:19:00.316Z,1022.11
2023-03-01T09:19:32.815Z,1022.11
2023-03-01T09:20:05.302Z,1022.11
2023-03-01T09:20:37.772Z,1022.08
2023-03-01T09:21:10.238Z,1022.10
2023-03-01T09:21:42.714Z,1022.10
2023-03-01T09:22:15.205Z,1022.09
2023-03-01T09:22:47.685Z,1022.10
2023-03-01T09:23:20.134Z,1022.10
2023-03-01T09:23:52.602Z,1022.10
2023-03-01T09:24:25.099Z,1022.08
2023-03-01T09:24:57.548Z,1022.09
2023-03-01T09:25:30.071Z,1022.11
2023-03-01T09:26:02.491Z,1022.09
2023-03-01T09:26:34.981Z,1022.08
2023-03-01T09:27:07.444Z,1022.08
2023-03-01T09:27:39.909Z,1022.07
2023-03-01T09:28:24.162Z,1022.08
2023-03-01T09:28:44.839Z,1022.10
2023-03-01T09:29:17.389Z,1022.10
2023-03-01T09:29:49.840Z,1022.10
2023-03-01T09:30:22.405Z,1022.07
2023-03-01T09:30:54.885Z,1022.08
2023-03-01T09:31:27.368Z,1022.08
2023-03-01T09:31:59.859Z,1022.07
2023-03-01T09:32:32.321Z,1022.10
2023-03-01T09:33:04.818Z,1022.10
2023-03-01T09:33:37.296Z,1022.08
2023-03-01T09:34:09.769Z,1022.05
2023-03-01T09:34:42.224Z,1022.06
2023-03-01T09:35:14.691Z,1022.09
2023-03-01T09:35:47.270Z,1022.05
2023-03-01T09:36:20.581Z,1022.04
2023-03-01T09:36:53.071Z,1022.08
2023-03-01T09:37:25.501Z,1022.04
2023-03-01T09:37:57.946Z,1022.02
2023-03-01T09:38:30.408Z,1022.00
2023-03-01T09:39:02.882Z,1022.00
2023-03-01T09:39:35.357Z,1021.97
2023-03-01T09:40:07.822Z,1021.96
2023-03-01T09:40:40.323Z,1021.97
2023-03-01T09:41:12.802Z,1021.96
2023-03-01T09:41:45.272Z,1021.97
2023-03-01T09:42:17.755Z,1021.97
2023-03-01T09:42:50.253Z,1021.98
2023-03-01T09:43:22.708Z,1021.95
2023-03-01T09:43:56.479Z,1021.97
2023-03-01T09:44:27.633Z,1021.97
2023-03-01T09:45:00.129Z,1021.92
2023-03-01T09:45:32.597Z,1021.93
2023-03-01T09:46:05.141Z,1021.95
2023-03-01T09:46:37.690Z,1021.94
2023-03-01T09:47:10.955Z,1021.96
2023-03-01T09:47:43.475Z,1021.94
2023-03-01T09:48:15.940Z,1021.93
2023-03-01T09:48:48.456Z,1021.89
2023-03-01T09:49:20.924Z,1021.88
2023-03-01T09:49:53.431Z,1021.92
2023-03-01T09:50:25.991Z,1021.91
2023-03-01T09:50:58.474Z,1021.92
2023-03-01T09:51:30.994Z,1021.91
2023-03-01T09:52:03.460Z,1021.93
2023-03-01T09:52:35.953Z,1021.91
2023-03-01T09:53:08.411Z,1021.87
2023-03-01T09:53:40.884Z,1021.88
2023-03-01T09:54:13.361Z,1021.86
2023-03-01T09:54:45.826Z,1021.85
2023-03-01T09:55:18.351Z,1021.88
2023-03-01T09:55:50.826Z,1021.85
2023-03-01T09:56:23.293Z,1021.88
2023-03-01T09:56:55.790Z,1021.86
2023-03-01T09:57:28.275Z,1021.87
2023-03-01T09:58:00.827Z,1021.86
2023-03-01T09:58:33.244Z,1021.85
2023-03-01T09:59:05.710Z,1021.85
2023-03-01T09:59:38.241Z,1021.80
2023-03-01T10:00:10.716Z,1021.80
2023-03-01T10:00:43.186Z,1021.75
2023-03-01T10:01:15.642Z,1021.77
2023-03-01T10:01:48.109Z,1021.77
2023-03-01T10:02:20.610Z,1021.74
2023-03-01T10:02:53.107Z,1021.77
2023-03-01T10:03:25.575Z,1021.76
2023-03-01T10:03:58.112Z,1021.77
2023-03-01T10:04:30.523Z,1021.75
2023-03-01T10:05:03.286Z,1021.69
2023-03-01T10:05:35.695Z,1021.70
2023-03-01T10:06:08.163Z,1021.82
2023-03-01T10:06:40.646Z,1021.76
2023-03-01T10:07:13.105Z,1021.75
2023-03-01T10:07:45.614Z,1021.74
2023-03-01T10:08:18.091Z,1021.73
2023-03-01T10:08:50.548Z,1021.73
2023-03-01T10:09:23.004Z,1021.75
2023-03-01T10:09:55.481Z,1021.76
2023-03-01T10:10:27.940Z,1021.76
2023-03-01T10:11:00.397Z,1021.75
2023-03-01T10:11:32.876Z,1021.74
2023-03-01T10:12:05.335Z,1021.74
2023-03-01T10:12:37.866Z,1021.76
2023-03-01T10:13:10.336Z,1021.75
2023-03-01T10:13:42.815Z,1021.73
2023-03-01T10:14:15.294Z,1021.81
2023-03-01T10:14:47.749Z,1021.74
2023-03-01T10:15:20.306Z,1021.76
2023-03-01T10:15:52.894Z,1021.72
2023-03-01T10:16:25.266Z,1021.74
2023-03-01T10:16:57.740Z,1021.74
2023-03-01T10:17:30.215Z,1021.73
2023-03-01T10:18:02.727Z,1021.79
2023-03-01T10:18:35.229Z,1021.78
2023-03-01T10:19:07.690Z,1021.76
2023-03-01T10:19:40.156Z,1021.76
2023-03-01T10:20:12.619Z,1021.74
2023-03-01T10:20:45.098Z,1021.72
2023-03-01T10:21:17.559Z,1021.75
2023-03-01T10:21:50.011Z,1021.76
2023-03-01T10:22:22.495Z,1021.75
2023-03-01T10:22:54.973Z,1021.69
2023-03-01T10:23:27.519Z,1021.68
2023-03-01T10:23:59.979Z,1021.65
2023-03-01T10:24:32.467Z,1021.70
2023-03-01T10:25:04.951Z,1021.71
2023-03-01T10:25:37.473Z,1021.65
2023-03-01T10:26:09.966Z,1021.70
2023-03-01T10:26:42.444Z,1021.63
2023-03-01T10:27:14.875Z,1021.61
2023-03-01T10:27:47.362Z,1021.58
2023-03-01T10:28:19.819Z,1021.56
2023-03-01T10:28:52.302Z,1021.58
2023-03-01T10:29:24.777Z,1021.51
2023-03-01T10:29:57.229Z,1021.51
2023-03-01T10:30:29.739Z,1021.49
2023-03-01T10:31:02.252Z,1021.54
2023-03-01T10:31:34.805Z,1021.51
2023-03-01T10:32:07.201Z,1021.50
2023-03-01T10:32:39.777Z,1021.51
2023-03-01T10:33:12.289Z,1021.56
2023-03-01T10:33:44.776Z,1021.52
2023-03-01T10:34:17.279Z,1021.52
2023-03-01T10:34:49.770Z,1021.52
2023-03-01T10:35:22.301Z,1021.53
2023-03-01T10:35:54.811Z,1021.50
2023-03-01T10:36:27.357Z,1021.45
2023-03-01T10:36:59.886Z,1021.45
2023-03-01T10:37:32.374Z,1021.41
2023-03-01T10:38:04.881Z,1021.44
2023-03-01T10:38:37.449Z,1021.48
2023-03-01T10:39:09.978Z,1021.48
2023-03-01T10:39:42.580Z,1021.51
2023-03-01T10:40:15.102Z,1021.49
2023-03-01T10:40:47.658Z,1021.46
2023-03-01T10:41:20.160Z,1021.44
2023-03-01T10:41:52.661Z,1021.44
2023-03-01T10:42:25.125Z,1021.44
2023-03-01T10:42:57.634Z,1021.41
2023-03-01T10:43:30.128Z,1021.39
2023-03-01T10:44:02.610Z,1021.38
2023-03-01T10:44:35.105Z,1021.33
2023-03-01T10:45:07.568Z,1021.34
2023-03-01T10:45:40.109Z,1021.33
2023-03-01T10:46:12.620Z,1021.25
2023-03-01T10:46:45.122Z,1021.29
2023-03-01T10:47:17.549Z,1021.38
2023-03-01T10:47:50.039Z,1021.29
2023-03-01T10:48:22.500Z,1021.23
2023-03-01T10:48:55.028Z,1021.28
2023-03-01T10:49:27.505Z,1021.29
2023-03-01T10:50:00.035Z,1021.28
2023-03-01T10:50:32.512Z,1021.22
2023-03-01T10:51:05.015Z,1021.23
2023-03-01T10:51:37.496Z,1021.25
2023-03-01T10:52:09.970Z,1021.19
2023-03-01T10:52:42.477Z,1021.19
2023-03-01T10:53:14.970Z,1021.22
2023-03-01T10:53:47.455Z,1021.19
2023-03-01T10:54:19.935Z,1021.23
2023-03-01T10:54:52.424Z,1021.22
2023-03-01T10:55:24.937Z,1021.15
2023-03-01T10:55:57.465Z,1021.11
2023-03-01T10:56:29.940Z,1021.12
2023-03-01T10:57:02.439Z,1021.11
2023-03-01T10:57:34.975Z,1021.08
2023-03-01T10:58:07.442Z,1021.05
2023-03-01T10:58:39.933Z,1021.07
2023-03-01T10:59:12.428Z,1021.05
2023-03-01T10:59:44.935Z,1021.06
2023-03-01T11:00:17.441Z,1021.03
2023-03-01T11:00:50.042Z,1021.06
2023-03-01T11:01:22.604Z,1021.05
2023-03-01T11:01:55.035Z,1021.04
2023-03-01T11:02:27.528Z,1021.03
2023-03-01T11:02:59.974Z,1021.05
2023-03-01T11:03:32.442Z,1021.02
2023-03-01T11:04:04.925Z,1021.04
2023-03-01T11:04:37.452Z,1021.03
2023-03-01T11:05:09.904Z,1020.97
2023-03-01T11:05:42.385Z,1020.98
2023-03-01T11:06:14.889Z,1021.00
2023-03-01T11:06:47.363Z,1020.97
2023-03-01T11:07:19.912Z,1021.00
2023-03-01T11:07:52.458Z,1020.96
2023-03-01T11:08:24.967Z,1020.97
2023-03-01T11:08:57.466Z,1020.98
2023-03-01T11:09:29.939Z,1020.99
2023-03-01T11:10:02.424Z,1020.95
2023-03-01T11:10:34.936Z,1021.02
2023-03-01T11:11:07.503Z,1021.01
2023-03-01T11:11:40.092Z,1021.06
2023-03-01T11:12:12.559Z,1021.04
2023-03-01T11:12:45.048Z,1021.05
2023-03-01T11:13:17.590Z,1020.99
2023-03-01T11:13:50.097Z,1020.95
2023-03-01T11:14:27.608Z,1020.93
2023-03-01T11:14:55.126Z,1020.98
2023-03-01T11:15:27.650Z,1020.96
2023-03-01T11:16:00.185Z,1020.94
2023-03-01T11:16:32.688Z,1020.93
2023-03-01T11:17:05.132Z,1020.93
2023-03-01T11:17:47.977Z,1020.93
2023-03-01T11:18:14.257Z,1020.89
2023-03-01T11:18:48.123Z,1020.91
2023-03-01T11:19:15.056Z,1020.90
2023-03-01T11:20:00.896Z,1020.91
2023-03-01T11:20:19.989Z,1020.90
2023-03-01T11:20:52.477Z,1020.92
2023-03-01T11:21:24.969Z,1020.89
2023-03-01T11:21:57.528Z,1020.88
2023-03-01T11:22:29.991Z,1020.89
2023-03-01T11:23:02.436Z,1020.87
2023-03-01T11:23:34.891Z,1020.87
2023-03-01T11:24:07.382Z,1020.93
2023-03-01T11:24:41.125Z,1020.90
2023-03-01T11:25:12.399Z,1020.88
2023-03-01T11:25:44.903Z,1020.88
2023-03-01T11:26:17.390Z,1020.89
2023-03-01T11:26:49.864Z,1020.84
2023-03-01T11:27:22.364Z,1020.79
2023-03-01T11:27:54.871Z,1020.77
2023-03-01T11:28:28.263Z,1020.76
2023-03-01T11:28:59.832Z,1020.80
2023-03-01T11:29:37.250Z,1020.81
2023-03-01T11:30:04.806Z,1020.82
2023-03-01T11:30:37.357Z,1020.83
2023-03-01T11:31:09.934Z,1020.85
2023-03-01T11:31:55.548Z,1020.86
2023-03-01T11:32:14.875Z,1020.83
2023-03-01T11:32:47.403Z,1020.85
2023-03-01T11:33:19.833Z,1020.84
2023-03-01T11:33:52.307Z,1020.84
2023-03-01T11:34:24.796Z,1020.85
2023-03-01T11:34:57.307Z,1020.85
2023-03-01T11:35:29.863Z,1020.86
2023-03-01T11:36:02.425Z,1020.87
2023-03-01T11:36:34.865Z,1020.85
2023-03-01T11:37:07.391Z,1020.81
2023-03-01T11:37:39.894Z,1020.84
2023-03-01T11:38:12.401Z,1020.85
2023-03-01T11:38:44.961Z,1020.81
2023-03-01T11:39:17.409Z,1020.81
2023-03-01T11:39:49.881Z,1020.82
2023-03-01T11:40:22.394Z,1020.79
2023-03-01T11:40:56.131Z,1020.76
2023-03-01T11:41:27.503Z,1020.73
2023-03-01T11:42:03.635Z,1020.74
2023-03-01T11:42:32.496Z,1020.73
2023-03-01T11:43:05.050Z,1020.73
2023-03-01T11:43:37.418Z,1020.72
2023-03-01T11:44:09.908Z,1020.69
2023-03-01T11:44:42.405Z,1020.72
2023-03-01T11:45:14.919Z,1020.70
2023-03-01T11:45:47.384Z,1020.68
2023-03-01T11:46:19.900Z,1020.66
2023-03-01T11:46:52.465Z,1020.64
2023-03-01T11:47:25.042Z,1020.68
2023-03-01T11:47:57.341Z,1020.61
2023-03-01T11:48:43.375Z,1020.65
2023-03-01T11:49:02.503Z,1020.68
2023-03-01T11:49:34.990Z,1020.66
2023-03-01T11:50:07.463Z,1020.64
2023-03-01T11:50:39.943Z,1020.63
2023-03-01T11:51:12.457Z,1020.67
2023-03-01T11:51:44.932Z,1020.61
2023-03-01T11:52:17.441Z,1020.64
2023-03-01T11:52:49.875Z,1020.65
2023-03-01T11:53:22.388Z,1020.60
2023-03-01T11:53:54.818Z,1020.59
2023-03-01T11:54:27.304Z,1020.65
2023-03-01T11:54:59.787Z,1020.61
2023-03-01T11:55:32.304Z,1020.62
2023-03-01T11:56:04.743Z,1020.65
2023-03-01T11:56:37.232Z,1020.65
2023-03-01T11:57:09.728Z,1020.63
2023-03-01T11:57:44.136Z,1020.60
2023-03-01T11:58:14.665Z,1020.60
2023-03-01T11:58:47.148Z,1020.65
2023-03-01T11:59:19.628Z,1020.63
2023-03-01T11:59:52.115Z,1020.65
2023-03-01T12:00:24.646Z,1020.67
2023-03-01T12:00:57.208Z,1020.67
2023-03-01T12:01:29.728Z,1020.64
2023-03-01T12:02:02.217Z,1020.66
2023-03-01T12:02:34.763Z,1020.66
2023-03-01T12:03:07.202Z,1020.63
2023-03-01T12:03:39.706Z,1020.63
2023-03-01T12:04:12.274Z,1020.61
2023-03-01T12:04:44.768Z,1020.57
2023-03-01T12:05:17.236Z,1020.60
2023-03-01T12:05:49.809Z,1020.55
2023-03-01T12:06:22.244Z,1020.56
2023-03-01T12:06:56.611Z,1020.56
2023-03-01T12:07:27.194Z,1020.55
2023-03-01T12:07:59.667Z,1020.52
2023-03-01T12:08:32.149Z,1020.49
2023-03-01T12:09:04.651Z,1020.51
2023-03-01T12:09:37.119Z,1020.52
2023-03-01T12:10:10.469Z,1020.56
2023-03-01T12:10:42.698Z,1020.56
2023-03-01T12:11:15.207Z,1020.54
2023-03-01T12:11:47.715Z,1020.50
2023-03-01T12:12:20.243Z,1020.47
2023-03-01T12:12:52.701Z,1020.49
2023-03-01T12:13:25.221Z,1020.46
2023-03-01T12:13:57.687Z,1020.48
2023-03-01T12:14:30.171Z,1020.47
2023-03-01T12:15:02.789Z,1020.47
2023-03-01T12:15:35.197Z,1020.47
2023-03-01T12:16:07.685Z,1020.48
2023-03-01T12:16:40.297Z,1020.46
2023-03-01T12:17:32.146Z,1020.44
2023-03-01T12:18:04.591Z,1020.39
2023-03-01T12:18:37.110Z,1020.39
2023-03-01T12:19:09.545Z,1020.39
2023-03-01T12:19:42.040Z,1020.35
2023-03-01T12:20:14.505Z,1020.36
2023-03-01T12:20:46.961Z,1020.40
2023-03-01T12:21:19.461Z,1020.38
2023-03-01T12:21:51.959Z,1020.35
2023-03-01T12:22:24.449Z,1020.36
2023-03-01T12:22:56.899Z,1020.29
2023-03-01T12:23:29.426Z,1020.30
2023-03-01T12:24:02.015Z,1020.30
2023-03-01T12:24:34.437Z,1020.27
2023-03-01T12:25:06.911Z,1020.31
2023-03-01T12:25:39.446Z,1020.34
2023-03-01T12:26:13.278Z,1020.29
2023-03-01T12:26:44.432Z,1020.30
2023-03-01T12:27:16.970Z,1020.27
2023-03-01T12:27:49.437Z,1020.28
2023-03-01T12:28:22.008Z,1020.27
2023-03-01T12:28:54.514Z,1020.34
2023-03-01T12:29:26.997Z,1020.30
2023-03-01T12:29:59.467Z,1020.29
2023-03-01T12:30:31.976Z,1020.26
2023-03-01T12:31:04.532Z,1020.23
2023-03-01T12:31:37.121Z,1020.21
2023-03-01T12:32:09.636Z,1020.22
2023-03-01T12:32:42.092Z,1020.21
2023-03-01T12:33:14.579Z,1020.19
2023-03-01T12:33:47.063Z,1020.19
2023-03-01T12:34:19.531Z,1020.15
2023-03-01T12:34:51.993Z,1020.13
2023-03-01T12:35:24.480Z,1020.15
2023-03-01T12:35:56.998Z,1020.14
2023-03-01T12:36:29.741Z,1020.14
2023-03-01T12:37:02.029Z,1020.10
2023-03-01T12:37:34.491Z,1020.09
2023-03-01T12:38:06.985Z,1020.09
2023-03-01T12:38:39.465Z,1020.08
2023-03-01T12:39:11.958Z,1020.10
2023-03-01T12:39:44.426Z,1020.07
2023-03-01T12:40:16.963Z,1020.07
2023-03-01T12:40:49.444Z,1020.05
2023-03-01T12:41:21.921Z,1020.02
2023-03-01T12:41:54.401Z,1020.02
2023-03-01T12:42:26.917Z,1020.04
2023-03-01T12:42:59.356Z,1020.04
2023-03-01T12:43:31.856Z,1020.01
2023-03-01T12:44:04.328Z,1019.98
2023-03-01T12:44:36.800Z,1020.02
2023-03-01T12:45:09.295Z,1020.00
2023-03-01T12:45:41.804Z,1019.97
2023-03-01T12:46:14.279Z,1019.94
2023-03-01T12:46:46.756Z,1019.97
2023-03-01T12:47:19.239Z,1019.96
2023-03-01T12:47:51.702Z,1019.93
2023-03-01T12:48:24.210Z,1019.90
2023-03-01T12:48:56.676Z,1019.89
2023-03-01T12:49:29.199Z,1019.90
2023-03-01T12:50:01.654Z,1019.92
2023-03-01T12:50:34.169Z,1019.95
2023-03-01T12:51:06.719Z,1019.91
2023-03-01T12:51:39.164Z,1019.92
2023-03-01T12:52:11.624Z,1019.91
2023-03-01T12:52:44.109Z,1019.88
2023-03-01T12:53:16.690Z,1019.90
2023-03-01T12:53:49.171Z,1019.90
2023-03-01T12:54:21.653Z,1019.87
2023-03-01T12:54:54.140Z,1019.89
2023-03-01T12:55:26.619Z,1019.92
2023-03-01T12:55:59.109Z,1019.88
2023-03-01T12:56:31.873Z,1019.85
2023-03-01T12:57:04.105Z,1019.83
2023-03-01T12:57:36.598Z,1019.80
2023-03-01T12:58:09.096Z,1019.79
2023-03-01T12:58:49.822Z,1019.79
2023-03-01T12:59:14.090Z,1019.78
2023-03-01T12:59:46.583Z,1019.78
2023-03-01T13:00:19.074Z,1019.77
2023-03-01T13:00:51.711Z,1019.75
2023-03-01T13:01:24.210Z,1019.74
2023-03-01T13:01:56.614Z,1019.73
2023-03-01T13:02:29.087Z,1019.73
2023-03-01T13:03:01.552Z,1019.76
2023-03-01T13:03:34.106Z,1019.75
2023-03-01T13:04:06.549Z,1019.73
2023-03-01T13:04:39.054Z,1019.74
2023-03-01T13:05:11.506Z,1019.76
2023-03-01T13:05:43.985Z,1019.73
2023-03-01T13:06:16.441Z,1019.71
2023-03-01T13:06:49.234Z,1019.70
2023-03-01T13:07:21.434Z,1019.72
2023-03-01T13:07:53.899Z,1019.71
2023-03-01T13:08:26.387Z,1019.68
2023-03-01T13:08:58.882Z,1019.68
2023-03-01T13:09:31.354Z,1019.70
2023-03-01T13:10:03.821Z,1019.67
2023-03-01T13:10:36.304Z,1019.67
2023-03-01T13:11:08.815Z,1019.69
2023-03-01T13:11:41.323Z,1019.71
2023-03-01T13:12:20.211Z,1019.65
2023-03-01T13:12:46.316Z,1019.67
2023-03-01T13:13:18.769Z,1019.61
2023-03-01T13:13:51.235Z,1019.67
2023-03-01T13:14:31.279Z,1019.69
2023-03-01T13:15:03.791Z,1019.64
2023-03-01T13:15:36.224Z,1019.64
2023-03-01T13:16:08.724Z,1019.63
2023-03-01T13:16:41.171Z,1019.63
2023-03-01T13:17:13.659Z,1019.63
2023-03-01T13:17:46.168Z,1019.64
2023-03-01T13:18:18.611Z,1019.63
2023-03-01T13:18:51.110Z,1019.63
2023-03-01T13:19:23.576Z,1019.62
2023-03-01T13:19:56.051Z,1019.59
2023-03-01T13:20:28.517Z,1019.61
2023-03-01T13:21:00.980Z,1019.59
2023-03-01T13:21:33.455Z,1019.58
2023-03-01T13:22:05.897Z,1019.61
2023-03-01T13:22:49.807Z,1019.60
2023-03-01T13:23:10.789Z,1019.61
2023-03-01T13:23:43.239Z,1019.58
2023-03-01T13:24:15.695Z,1019.61
2023-03-01T13:24:48.186Z,1019.57
2023-03-01T13:25:20.735Z,1019.59
2023-03-01T13:25:53.209Z,1019.55
2023-03-01T13:26:25.715Z,1019.55
2023-03-01T13:26:58.205Z,1019.57
2023-03-01T13:27:30.706Z,1019.57
2023-03-01T13:28:03.179Z,1019.58
2023-03-01T13:28:35.645Z,1019.57
2023-03-01T13:29:08.093Z,1019.60
2023-03-01T13:29:40.612Z,1019.52
2023-03-01T13:30:13.073Z,1019.55
2023-03-01T13:30:45.549Z,1019.54
2023-03-01T13:31:18.015Z,1019.54
2023-03-01T13:31:50.731Z,1019.48
2023-03-01T13:32:28.831Z,1019.49
2023-03-01T13:32:55.641Z,1019.48
2023-03-01T13:33:27.940Z,1019.49